createdAt,value
2022-10-11T00:01:34.778Z,15.38
2022-10-11T00:04:12.881Z,14.98
2022-10-11T00:06:51.407Z,18.13
2022-10-11T00:09:30.118Z,14.48
2022-10-11T00:12:07.858Z,14.55
2022-10-11T00:14:45.661Z,15.27
2022-10-11T00:17:23.875Z,13.00
2022-10-11T00:20:02.039Z,16.55
2022-10-11T00:22:41.317Z,19.67
2022-10-11T00:25:20.249Z,17.73
2022-10-11T00:27:58.230Z,22.58
2022-10-11T00:30:36.329Z,18.70
2022-10-11T00:33:14.673Z,17.58
2022-10-11T00:35:52.910Z,15.95
2022-10-11T00:38:32.067Z,16.27
2022-10-11T00:41:11.005Z,13.23
2022-10-11T00:44:06.941Z,16.55
2022-10-11T00:46:55.577Z,12.25
2022-10-11T00:49:43.939Z,12.35
2022-10-11T00:52:29.143Z,14.68
2022-10-11T00:55:12.454Z,16.10
2022-10-11T00:57:52.698Z,19.48
2022-10-11T01:00:31.069Z,22.77
2022-10-11T01:03:09.133Z,17.73
2022-10-11T01:05:47.670Z,12.18
2022-10-11T01:08:26.976Z,23.90
2022-10-11T01:11:05.798Z,19.08
2022-10-11T01:14:00.007Z,17.42
2022-10-11T01:16:57.466Z,23.13
2022-10-11T01:19:46.096Z,17.75
2022-10-11T01:22:52.202Z,15.50
2022-10-11T01:25:50.907Z,17.60
2022-10-11T01:28:59.614Z,17.38
2022-10-11T01:31:37.529Z,17.05
2022-10-11T01:34:31.737Z,22.73
2022-10-11T01:37:42.543Z,14.95
2022-10-11T01:40:39.766Z,17.30
2022-10-11T01:43:21.484Z,16.02
2022-10-11T01:46:03.758Z,14.13
2022-10-11T01:48:52.385Z,20.63
2022-10-11T01:51:41.949Z,16.02
2022-10-11T01:54:44.347Z,16.67
2022-10-11T01:57:56.225Z,13.77
2022-10-11T02:01:07.139Z,17.60
2022-10-11T02:04:04.769Z,15.75
2022-10-11T02:07:01.744Z,18.73
2022-10-11T02:09:53.200Z,20.58
2022-10-11T02:13:08.502Z,14.40
2022-10-11T02:15:49.971Z,15.95
2022-10-11T02:18:36.727Z,16.27
2022-10-11T02:21:19.387Z,19.23
2022-10-11T02:24:14.077Z,15.73
2022-10-11T02:26:59.650Z,14.77
2022-10-11T02:29:42.562Z,20.88
2022-10-11T02:32:25.364Z,18.45
2022-10-11T02:35:06.402Z,15.95
2022-10-11T02:37:58.787Z,12.57
2022-10-11T02:40:41.718Z,21.73
2022-10-11T02:43:25.763Z,19.20
2022-10-11T02:46:08.368Z,22.70
2022-10-11T02:48:49.909Z,15.77
2022-10-11T02:51:32.062Z,18.52
2022-10-11T02:54:11.399Z,18.35
2022-10-11T02:56:50.800Z,20.52
2022-10-11T02:59:43.635Z,20.30
2022-10-11T03:02:22.259Z,17.20
2022-10-11T03:05:03.107Z,16.75
2022-10-11T03:07:45.003Z,15.73
2022-10-11T03:10:26.118Z,17.33
2022-10-11T03:13:05.825Z,13.35
2022-10-11T03:15:44.401Z,17.10
2022-10-11T03:18:24.251Z,24.75
2022-10-11T03:21:04.226Z,17.63
2022-10-11T03:23:44.897Z,14.70
2022-10-11T03:26:23.357Z,15.73
2022-10-11T03:29:06.016Z,18.83
2022-10-11T03:31:46.355Z,19.58
2022-10-11T03:34:27.534Z,18.58
2022-10-11T03:37:06.268Z,11.95
2022-10-11T03:39:46.319Z,16.90
2022-10-11T03:42:25.445Z,18.45
2022-10-11T03:45:18.460Z,16.95
2022-10-11T03:47:57.195Z,17.55
2022-10-11T03:50:37.990Z,13.75
2022-10-11T03:53:16.778Z,19.60
2022-10-11T03:55:58.450Z,18.95
2022-10-11T03:58:39.030Z,16.20
2022-10-11T04:01:19.829Z,17.42
2022-10-11T04:03:59.907Z,15.57
2022-10-11T04:06:37.963Z,18.20
2022-10-11T04:09:21.599Z,19.98
2022-10-11T04:12:01.743Z,15.50
2022-10-11T04:14:42.006Z,15.68
2022-10-11T04:17:21.329Z,15.63
2022-10-11T04:20:00.806Z,20.33
2022-10-11T04:22:41.295Z,14.80
2022-10-11T04:25:20.706Z,22.27
2022-10-11T04:28:00.304Z,13.23
2022-10-11T04:30:40.352Z,16.42
2022-10-11T04:33:21.302Z,12.93
2022-10-11T04:36:00.317Z,15.68
2022-10-11T04:38:39.576Z,21.65
2022-10-11T04:41:19.718Z,18.58
2022-10-11T04:44:00.754Z,24.13
2022-10-11T04:46:41.825Z,23.52
2022-10-11T04:49:21.373Z,12.30
2022-10-11T04:52:02.934Z,15.63
2022-10-11T04:54:41.790Z,16.70
2022-10-11T04:57:20.530Z,19.65
2022-10-11T05:00:01.794Z,14.55
2022-10-11T05:02:47.129Z,24.63
2022-10-11T05:05:28.219Z,14.65
2022-10-11T05:08:07.563Z,16.80
2022-10-11T05:11:05.368Z,20.58
2022-10-11T05:13:46.543Z,16.30
2022-10-11T05:16:27.139Z,20.35
2022-10-11T05:19:07.849Z,15.55
2022-10-11T05:21:47.050Z,19.77
2022-10-11T05:24:27.281Z,16.45
2022-10-11T05:27:06.237Z,14.90
2022-10-11T05:29:46.830Z,22.17
2022-10-11T05:32:28.281Z,16.15
2022-10-11T05:35:08.854Z,23.83
2022-10-11T05:37:48.463Z,17.52
2022-10-11T05:40:27.013Z,21.33
2022-10-11T05:43:07.331Z,14.13
2022-10-11T05:45:47.205Z,13.23
2022-10-11T05:48:39.047Z,18.52
2022-10-11T05:51:18.862Z,22.13
2022-10-11T05:53:57.667Z,12.77
2022-10-11T05:56:38.037Z,25.85
2022-10-11T05:59:17.667Z,17.38
2022-10-11T06:02:14.117Z,12.30
2022-10-11T06:04:54.980Z,14.25
2022-10-11T06:07:37.270Z,15.93
2022-10-11T06:10:16.750Z,18.17
2022-10-11T06:13:00.094Z,20.45
2022-10-11T06:16:11.080Z,24.42
2022-10-11T06:19:11.363Z,18.10
2022-10-11T06:22:07.649Z,18.83
2022-10-11T06:25:09.994Z,22.95
2022-10-11T06:28:09.413Z,26.85
2022-10-11T06:31:03.493Z,17.45
2022-10-11T06:33:59.998Z,18.58
2022-10-11T06:36:56.062Z,18.35
2022-10-11T06:39:59.016Z,19.45
2022-10-11T06:42:54.708Z,21.35
2022-10-11T06:45:47.468Z,22.95
2022-10-11T06:48:42.861Z,14.55
2022-10-11T06:51:45.102Z,23.50
2022-10-11T06:54:45.171Z,17.70
2022-10-11T06:57:48.055Z,19.67
2022-10-11T07:01:03.774Z,21.88
2022-10-11T07:04:01.612Z,20.25
2022-10-11T07:06:54.720Z,22.83
2022-10-11T07:09:48.398Z,25.35
2022-10-11T07:12:45.795Z,18.92
2022-10-11T07:15:41.346Z,16.60
2022-10-11T07:18:41.689Z,31.90
2022-10-11T07:21:35.785Z,25.02
2022-10-11T07:24:31.215Z,24.02
2022-10-11T07:27:43.300Z,20.38
2022-10-11T07:30:40.918Z,16.98
2022-10-11T07:33:35.030Z,31.85
2022-10-11T07:36:33.639Z,21.05
2022-10-11T07:39:39.787Z,24.77
2022-10-11T07:42:34.776Z,30.55
2022-10-11T07:45:32.803Z,16.45
2022-10-11T07:48:40.519Z,19.75
2022-10-11T07:51:34.572Z,25.38
2022-10-11T07:54:31.042Z,27.45
2022-10-11T07:57:36.493Z,23.75
2022-10-11T08:01:18.449Z,22.77
2022-10-11T08:04:15.348Z,22.63
2022-10-11T08:07:15.707Z,23.25
2022-10-11T08:10:29.112Z,24.55
2022-10-11T08:13:26.869Z,28.98
2022-10-11T08:16:21.821Z,28.00
2022-10-11T08:19:21.194Z,30.50
2022-10-11T08:22:18.185Z,29.88
2022-10-11T08:25:15.576Z,29.25
2022-10-11T08:28:21.302Z,31.20
2022-10-11T08:31:17.756Z,25.13
2022-10-11T08:34:15.441Z,22.85
2022-10-11T08:37:11.572Z,27.65
2022-10-11T08:40:06.754Z,34.05
2022-10-11T08:43:21.088Z,27.42
2022-10-11T08:45:54.280Z,26.25
2022-10-11T08:48:44.877Z,22.48
2022-10-11T08:51:36.229Z,20.52
2022-10-11T08:54:07.833Z,26.65
2022-10-11T08:56:40.473Z,32.50
2022-10-11T08:59:12.986Z,29.52
2022-10-11T09:01:56.942Z,27.35
2022-10-11T09:04:27.232Z,21.23
2022-10-11T09:07:30.771Z,21.92
2022-10-11T09:10:33.665Z,30.75
2022-10-11T09:13:31.875Z,22.55
2022-10-11T09:16:09.575Z,23.08
2022-10-11T09:18:53.075Z,30.35
2022-10-11T09:21:47.943Z,23.55
2022-10-11T09:24:46.462Z,28.95
2022-10-11T09:28:01.735Z,25.08
2022-10-11T09:30:32.664Z,21.00
2022-10-11T09:33:12.945Z,16.77
2022-10-11T09:35:51.247Z,24.02
2022-10-11T09:38:45.790Z,19.63
2022-10-11T09:41:41.292Z,23.77
2022-10-11T09:44:28.998Z,26.83
2022-10-11T09:46:58.773Z,26.98
2022-10-11T09:49:47.043Z,20.23
2022-10-11T09:52:19.201Z,23.55
2022-10-11T09:55:00.922Z,32.60
2022-10-11T09:57:33.526Z,20.05
2022-10-11T10:00:26.929Z,23.63
2022-10-11T10:03:04.396Z,22.30
2022-10-11T10:05:37.038Z,24.52
2022-10-11T10:08:05.659Z,25.30
2022-10-11T10:10:41.265Z,27.58
2022-10-11T10:13:35.930Z,23.65
2022-10-11T10:16:11.978Z,31.45
2022-10-11T10:18:50.640Z,26.55
2022-10-11T10:21:29.979Z,21.05
2022-10-11T10:24:03.347Z,20.67
2022-10-11T10:26:33.353Z,27.58
2022-10-11T10:29:16.784Z,20.70
2022-10-11T10:35:00.812Z,15.48
2022-10-11T10:37:54.758Z,22.52
2022-10-11T10:40:40.175Z,19.40
2022-10-11T10:43:16.180Z,23.60
2022-10-11T10:46:49.767Z,19.13
2022-10-11T10:52:27.556Z,18.50
2022-10-11T10:55:25.484Z,17.42
2022-10-11T10:58:27.136Z,13.60
2022-10-11T11:01:27.125Z,16.80
2022-10-11T11:04:05.274Z,18.45
2022-10-11T11:07:04.534Z,18.88
2022-10-11T11:10:02.632Z,18.48
2022-10-11T11:12:47.872Z,19.20
2022-10-11T11:15:29.219Z,25.40
2022-10-11T11:18:38.454Z,21.70
2022-10-11T11:21:13.274Z,20.80
2022-10-11T11:23:48.151Z,13.57
2022-10-11T11:26:39.729Z,16.40
2022-10-11T11:29:44.102Z,21.60
2022-10-11T11:32:22.230Z,16.13
2022-10-11T11:35:18.858Z,15.15
2022-10-11T11:37:49.874Z,16.38
2022-10-11T11:40:40.082Z,25.73
2022-10-11T11:43:20.726Z,17.48
2022-10-11T11:46:06.416Z,20.00
2022-10-11T11:48:39.370Z,19.08
2022-10-11T11:51:22.065Z,14.73
2022-10-11T11:54:13.518Z,16.80
2022-10-11T11:59:21.589Z,12.68
2022-10-11T12:02:19.426Z,14.45
2022-10-11T12:04:49.019Z,15.85
2022-10-11T12:07:23.396Z,11.48
2022-10-11T12:10:17.666Z,19.33
2022-10-11T12:12:46.045Z,10.18
2022-10-11T12:15:17.499Z,16.40
2022-10-11T12:18:15.415Z,17.58
2022-10-11T12:20:45.524Z,14.23
2022-10-11T12:23:29.789Z,17.70
2022-10-11T12:26:19.247Z,15.93
2022-10-11T12:29:00.831Z,17.40
2022-10-11T12:31:35.949Z,11.25
2022-10-11T12:34:11.265Z,13.93
2022-10-11T12:36:48.662Z,14.45
2022-10-11T12:39:20.292Z,12.60
2022-10-11T12:41:51.188Z,13.80
2022-10-11T12:44:28.022Z,13.95
2022-10-11T12:46:57.986Z,8.50
2022-10-11T12:50:06.307Z,15.55
2022-10-11T12:52:44.614Z,12.85
2022-10-11T12:55:56.714Z,10.23
2022-10-11T12:58:39.179Z,11.27
2022-10-11T13:01:23.716Z,10.77
2022-10-11T13:04:12.015Z,14.60
2022-10-11T13:06:48.601Z,16.02
2022-10-11T13:09:33.887Z,11.30
2022-10-11T13:12:14.328Z,12.35
2022-10-11T13:15:01.376Z,16.63
2022-10-11T13:17:38.642Z,12.80
2022-10-11T13:20:18.150Z,10.30
2022-10-11T13:22:53.226Z,11.18
2022-10-11T13:25:25.341Z,12.82
2022-10-11T13:27:56.129Z,10.20
2022-10-11T13:30:32.979Z,12.77
2022-10-11T13:33:06.208Z,13.25
2022-10-11T13:35:37.392Z,10.68
2022-10-11T13:38:09.250Z,10.15
2022-10-11T13:40:38.888Z,10.48
2022-10-11T13:43:08.434Z,13.55
2022-10-11T13:45:39.549Z,15.47
2022-10-11T13:48:15.688Z,13.07
2022-10-11T13:50:51.350Z,11.98
2022-10-11T13:53:19.820Z,13.32
2022-10-11T13:56:00.972Z,15.05
2022-10-11T13:58:45.192Z,12.82
2022-10-11T14:01:28.364Z,11.77
2022-10-11T14:04:09.487Z,11.05
2022-10-11T14:06:59.832Z,10.43
2022-10-11T14:09:34.549Z,12.73
2022-10-11T14:12:34.231Z,12.82
2022-10-11T14:15:05.923Z,13.70
2022-10-11T14:17:52.844Z,13.75
2022-10-11T14:20:38.667Z,10.85
2022-10-11T14:23:07.925Z,15.68
2022-10-11T14:25:37.006Z,15.20
2022-10-11T14:28:11.105Z,14.20
2022-10-11T14:30:42.108Z,13.07
2022-10-11T14:33:11.902Z,10.40
2022-10-11T14:35:42.636Z,14.63
2022-10-11T14:40:41.326Z,9.98
2022-10-11T14:43:09.790Z,10.93
2022-10-11T14:45:38.163Z,8.57
2022-10-11T14:48:07.389Z,14.00
2022-10-11T14:50:43.259Z,12.35
2022-10-11T14:53:12.216Z,10.63
2022-10-11T14:55:42.168Z,13.73
2022-10-11T14:58:13.702Z,11.40
2022-10-11T15:00:42.478Z,12.02
2022-10-11T15:03:10.926Z,15.60
2022-10-11T15:05:40.036Z,14.13
2022-10-11T15:08:08.511Z,13.98
2022-10-11T15:10:39.992Z,9.85
2022-10-11T15:13:10.059Z,9.10
2022-10-11T15:15:41.367Z,15.57
2022-10-11T15:18:13.827Z,10.20
2022-10-11T15:20:44.741Z,11.70
2022-10-11T15:23:13.810Z,8.80
2022-10-11T15:25:43.197Z,6.82
2022-10-11T15:28:30.386Z,11.07
2022-10-11T15:30:59.353Z,10.65
2022-10-11T15:33:27.365Z,17.30
2022-10-11T15:35:56.847Z,9.90
2022-10-11T15:38:26.235Z,16.60
2022-10-11T15:40:55.783Z,10.70
2022-10-11T15:43:25.325Z,8.98
2022-10-11T15:45:55.669Z,11.35
2022-10-11T15:48:26.863Z,8.18
2022-10-11T15:50:55.844Z,9.88
2022-10-11T15:53:31.624Z,8.48
2022-10-11T15:56:06.969Z,9.50
2022-10-11T15:58:38.217Z,10.65
2022-10-11T16:01:09.660Z,8.40
2022-10-11T16:03:38.945Z,15.10
2022-10-11T16:06:08.761Z,12.82
2022-10-11T16:08:38.386Z,10.82
2022-10-11T16:11:09.273Z,11.60
2022-10-11T16:13:38.858Z,14.80
2022-10-11T16:16:10.340Z,11.50
2022-10-11T16:18:39.469Z,17.00
2022-10-11T16:21:10.643Z,15.93
2022-10-11T16:23:40.731Z,17.08
2022-10-11T16:26:14.582Z,9.65
2022-10-11T16:28:44.120Z,12.70
2022-10-11T16:31:22.166Z,10.45
2022-10-11T16:33:53.526Z,15.20
2022-10-11T16:36:37.529Z,17.95
2022-10-11T16:39:19.141Z,18.17
2022-10-11T16:41:48.292Z,20.13
2022-10-11T16:44:22.077Z,15.63
2022-10-11T16:46:51.044Z,12.85
2022-10-11T16:49:23.330Z,13.93
2022-10-11T16:51:53.929Z,10.73
2022-10-11T16:54:23.095Z,11.13
2022-10-11T16:56:51.858Z,12.23
2022-10-11T16:59:20.534Z,10.77
2022-10-11T17:01:49.277Z,14.40
2022-10-11T17:04:17.441Z,11.43
2022-10-11T17:06:46.528Z,18.50
2022-10-11T17:09:16.327Z,14.30
2022-10-11T17:11:44.946Z,18.67
2022-10-11T17:14:14.291Z,13.95
2022-10-11T17:16:43.289Z,14.95
2022-10-11T17:19:14.310Z,17.17
2022-10-11T17:21:43.166Z,12.70
2022-10-11T17:24:11.618Z,14.70
2022-10-11T17:26:39.789Z,17.83
2022-10-11T17:29:08.263Z,15.05
2022-10-11T17:31:38.775Z,13.98
2022-10-11T17:34:07.127Z,19.70
2022-10-11T17:36:35.315Z,23.95
2022-10-11T17:39:07.649Z,23.65
2022-10-11T17:41:37.211Z,21.80
2022-10-11T17:44:06.720Z,22.27
2022-10-11T17:46:36.754Z,18.98
2022-10-11T17:49:07.197Z,17.42
2022-10-11T17:51:37.960Z,19.10
2022-10-11T17:54:07.066Z,22.15
2022-10-11T17:56:38.208Z,17.73
2022-10-11T17:59:09.026Z,26.20
2022-10-11T18:01:37.760Z,17.73
2022-10-11T18:04:10.367Z,17.75
2022-10-11T18:06:39.704Z,17.38
2022-10-11T18:09:08.514Z,17.83
2022-10-11T18:11:37.032Z,17.90
2022-10-11T18:14:05.772Z,17.52
2022-10-11T18:16:34.899Z,18.58
2022-10-11T18:19:16.180Z,22.52
2022-10-11T18:24:15.881Z,19.95
2022-10-11T18:26:46.151Z,25.40
2022-10-11T18:29:16.533Z,19.60
2022-10-11T18:31:49.402Z,17.98
2022-10-11T18:34:21.448Z,23.98
2022-10-11T18:36:51.453Z,19.70
2022-10-11T18:39:22.046Z,21.40
2022-10-11T18:41:50.055Z,18.50
2022-10-11T18:44:18.807Z,15.63
2022-10-11T18:46:47.149Z,19.25
2022-10-11T18:49:15.974Z,23.38
2022-10-11T18:51:46.914Z,18.48
2022-10-11T18:56:51.115Z,19.58
2022-10-11T18:59:20.690Z,24.83
2022-10-11T19:01:52.633Z,33.63
2022-10-11T19:04:21.627Z,23.35
2022-10-11T19:06:51.360Z,19.10
2022-10-11T19:09:24.815Z,21.75
2022-10-11T19:11:55.588Z,30.08
2022-10-11T19:14:28.877Z,18.42
2022-10-11T19:16:59.098Z,20.50
2022-10-11T19:19:29.928Z,20.98
2022-10-11T19:22:26.742Z,24.95
2022-10-11T19:25:07.847Z,15.80
2022-10-11T19:27:41.033Z,23.38
2022-10-11T19:30:12.541Z,24.85
2022-10-11T19:32:41.835Z,26.17
2022-10-11T19:35:15.252Z,23.02
2022-10-11T19:37:46.576Z,21.85
2022-10-11T19:40:15.606Z,22.70
2022-10-11T19:42:46.340Z,22.98
2022-10-11T19:45:15.108Z,22.85
2022-10-11T19:47:43.709Z,20.23
2022-10-11T19:50:14.336Z,22.35
2022-10-11T19:52:44.993Z,21.45
2022-10-11T19:55:14.158Z,17.95
2022-10-11T19:57:45.220Z,25.45
2022-10-11T20:00:16.435Z,20.02
2022-10-11T20:02:45.122Z,24.17
2022-10-11T20:05:17.035Z,28.98
2022-10-11T20:07:47.702Z,17.73
2022-10-11T20:10:16.457Z,26.35
2022-10-11T20:12:46.147Z,18.55
2022-10-11T20:15:15.413Z,23.35
2022-10-11T20:17:52.075Z,22.95
2022-10-11T20:20:20.661Z,18.42
2022-10-11T20:22:49.580Z,19.95
2022-10-11T20:25:21.029Z,16.98
2022-10-11T20:30:19.548Z,20.45
2022-10-11T20:32:50.536Z,20.33
2022-10-11T20:35:19.840Z,19.85
2022-10-11T20:37:49.845Z,19.90
2022-10-11T20:40:18.575Z,20.30
2022-10-11T20:42:46.284Z,23.33
2022-10-11T20:45:14.494Z,15.02
2022-10-11T20:47:42.406Z,22.65
2022-10-11T20:50:10.001Z,16.55
2022-10-11T20:52:37.438Z,19.30
2022-10-11T20:55:06.801Z,22.42
2022-10-11T20:57:34.923Z,19.25
2022-10-11T21:00:03.746Z,25.70
2022-10-11T21:02:31.545Z,20.52
2022-10-11T21:04:59.455Z,22.48
2022-10-11T21:07:27.309Z,20.08
2022-10-11T21:09:55.062Z,19.50
2022-10-11T21:12:22.900Z,19.38
2022-10-11T21:14:50.611Z,25.45
2022-10-11T21:17:18.721Z,27.77
2022-10-11T21:19:46.662Z,18.55
2022-10-11T21:22:14.236Z,21.30
2022-10-11T21:24:41.684Z,18.88
2022-10-11T21:27:09.759Z,22.02
2022-10-11T21:29:37.600Z,17.40
2022-10-11T21:32:05.106Z,20.27
2022-10-11T21:34:32.614Z,18.75
2022-10-11T21:37:00.566Z,22.67
2022-10-11T21:39:28.050Z,18.85
2022-10-11T21:41:55.451Z,17.20
2022-10-11T21:44:23.189Z,22.40
2022-10-11T21:47:07.746Z,17.98
2022-10-11T21:49:36.170Z,19.92
2022-10-11T21:52:04.655Z,21.45
2022-10-11T21:54:32.338Z,16.88
2022-10-11T21:57:00.227Z,14.75
2022-10-11T21:59:28.080Z,20.52
2022-10-11T22:02:01.469Z,26.10
2022-10-11T22:04:29.711Z,22.55
2022-10-11T22:06:57.167Z,21.88
2022-10-11T22:09:24.714Z,18.27
2022-10-11T22:11:52.668Z,19.48
2022-10-11T22:14:21.235Z,21.13
2022-10-11T22:16:48.777Z,17.08
2022-10-11T22:19:16.356Z,24.67
2022-10-11T22:21:45.378Z,17.67
2022-10-11T22:24:13.928Z,19.33
2022-10-11T22:26:41.433Z,13.95
2022-10-11T22:29:09.660Z,21.35
2022-10-11T22:31:37.526Z,19.38
2022-10-11T22:34:05.091Z,24.25
2022-10-11T22:36:33.850Z,19.45
2022-10-11T22:39:02.704Z,21.98
2022-10-11T22:41:30.601Z,20.05
2022-10-11T22:43:58.501Z,15.48
2022-10-11T22:46:25.977Z,21.50
2022-10-11T22:48:53.843Z,19.83
2022-10-11T22:51:21.553Z,21.52
2022-10-11T22:53:49.217Z,18.52
2022-10-11T22:56:16.955Z,21.40
2022-10-11T22:58:44.530Z,20.75
2022-10-11T23:01:15.927Z,19.45
2022-10-11T23:03:43.631Z,23.50
2022-10-11T23:06:11.541Z,16.90
2022-10-11T23:08:39.058Z,19.92
2022-10-11T23:11:08.192Z,18.35
2022-10-11T23:13:36.275Z,19.17
2022-10-11T23:16:08.743Z,18.42
2022-10-11T23:18:37.390Z,17.38
2022-10-11T23:21:06.593Z,18.88
2022-10-11T23:23:34.169Z,16.13
2022-10-11T23:26:11.425Z,14.65
2022-10-11T23:28:39.051Z,20.35
2022-10-11T23:31:17.765Z,15.90
2022-10-11T23:33:46.631Z,25.00
2022-10-11T23:36:25.028Z,21.05
2022-10-11T23:38:54.667Z,21.05
2022-10-11T23:41:23.526Z,18.60
2022-10-11T23:43:51.006Z,17.98
2022-10-11T23:46:19.171Z,16.65
2022-10-11T23:48:46.958Z,16.95
2022-10-11T23:51:14.521Z,17.77
2022-10-11T23:53:42.337Z,14.38
2022-10-11T23:56:11.172Z,19.42
2022-10-11T23:58:38.842Z,20.15
